This is the latest recevied weather packets stored in our database for station/object DC4AT. If no packets are shown the sender has not sent any weather packets the latest 10 day(s).
| Time | Temp. | Humidity | Pressure | Rain* | Wind** | Luminosity | Snow |
|---|---|---|---|---|---|---|---|
| 1777818819 | 20.56° C | 46% | 1011 hPa | 0 mm | - | 360 W/m² | - |
| 1777818219 | 20.56° C | 48% | 1011.2 hPa | 0 mm | - | 211 W/m² | - |
| 1777817619 | 20° C | 49% | 1011.3 hPa | 0 mm | - | 128 W/m² | - |
| 1777817019 | 20.56° C | 47% | 1011.4 hPa | 0 mm | - | 97 W/m² | - |
| 1777816419 | 20° C | 47% | 1011.4 hPa | 0 mm | - | 206 W/m² | - |
| 1777815819 | 20° C | 49% | 1011.5 hPa | 0 mm | - | 149 W/m² | - |
| 1777815219 | 20° C | 57% | 1011.6 hPa | 0 mm | - | 169 W/m² | - |
| 1777814619 | 20° C | 55% | 1011.8 hPa | 0 mm | - | 104 W/m² | - |
| 1777814019 | 20° C | 56% | 1011.9 hPa | 0 mm | - | 100 W/m² | - |
| 1777813420 | 19.44° C | 53% | 1011.9 hPa | 0 mm | - | 151 W/m² | - |
| 1777812820 | 19.44° C | 60% | 1012 hPa | 0 mm | - | 171 W/m² | - |
| 1777812220 | 18.89° C | 60% | 1012 hPa | 0 mm | - | 239 W/m² | - |
| 1777811620 | 18.89° C | 63% | 1012.3 hPa | 0 mm | - | 130 W/m² | - |
| 1777811020 | 18.33° C | 64% | 1012.4 hPa | 0 mm | - | 118 W/m² | - |
| 1777810420 | 17.78° C | 69% | 1012.3 hPa | 0 mm | - | 160 W/m² | - |
| 1777809820 | 17.78° C | 66% | 1012.6 hPa | 0 mm | - | 165 W/m² | - |
| 1777809220 | 17.78° C | 64% | 1012.6 hPa | 0 mm | - | 123 W/m² | - |
| 1777808620 | 17.78° C | 66% | 1012.7 hPa | 0 mm | - | 95 W/m² | - |
| 1777808020 | 17.22° C | 70% | 1012.9 hPa | 0 mm | - | 111 W/m² | - |
| 1777807420 | 17.22° C | 69% | 1012.9 hPa | 0 mm | - | 153 W/m² | - |
| 1777806820 | 16.67° C | 68% | 1012.9 hPa | 0 mm | - | 128 W/m² | - |
| 1777806220 | 17.22° C | 69% | 1013 hPa | 0 mm | - | 113 W/m² | - |
| 1777805620 | 17.78° C | 67% | 1013.1 hPa | 0 mm | - | 91 W/m² | - |
| 1777805020 | 18.33° C | 60% | 1013.2 hPa | 0 mm | - | 97 W/m² | - |
| 1777804420 | 18.89° C | 51% | 1013.1 hPa | 0 mm | - | 102 W/m² | - |
* Rain latest hour (hover to see other rain measurements)
** Current wind speed in m/s (hover to see current wind gust speed)